createdAt,value
2016-09-25T08:42:53.818Z,1013.83
2016-09-25T08:43:53.767Z,1013.85
2016-09-25T08:44:53.726Z,1013.82
2016-09-25T08:45:53.680Z,1013.82
2016-09-25T08:46:53.626Z,1013.86
2016-09-25T08:47:53.589Z,1013.8
2016-09-25T08:48:53.742Z,1013.83
2016-09-25T08:49:53.493Z,1013.83
2016-09-25T08:50:53.443Z,1013.85
2016-09-25T08:51:53.407Z,1013.79
2016-09-25T08:52:53.356Z,1013.8
2016-09-25T08:53:53.513Z,1013.79
2016-09-25T08:54:53.263Z,1013.78
2016-09-25T08:55:53.227Z,1013.79
2016-09-25T08:56:53.169Z,1013.78
2016-09-25T08:57:53.124Z,1013.79
2016-09-25T08:58:53.079Z,1013.8
2016-09-25T08:59:53.035Z,1013.79
2016-09-25T09:00:52.992Z,1013.79
2016-09-25T09:01:52.943Z,1013.73
2016-09-25T09:02:53.102Z,1013.79
2016-09-25T09:03:52.850Z,1013.75
2016-09-25T09:04:52.812Z,1013.73
2016-09-25T09:05:52.811Z,1013.72
2016-09-25T09:06:52.707Z,1013.74
2016-09-25T09:07:52.869Z,1013.71
2016-09-25T09:08:52.630Z,1013.69
2016-09-25T09:09:52.576Z,1013.71
2016-09-25T09:10:52.523Z,1013.7
2016-09-25T09:11:52.486Z,1013.73
2016-09-25T09:12:52.443Z,1013.68
2016-09-25T09:13:52.395Z,1013.67
2016-09-25T09:14:52.347Z,1013.68
2016-09-25T09:15:52.327Z,1013.75
2016-09-25T09:16:52.256Z,1013.63
2016-09-25T09:17:52.212Z,1013.61
2016-09-25T09:18:52.170Z,1013.63
2016-09-25T09:19:52.128Z,1013.62
2016-09-25T09:20:52.074Z,1013.57
2016-09-25T09:21:52.028Z,1013.58
2016-09-25T09:22:51.993Z,1013.61
2016-09-25T09:23:51.938Z,1013.58
2016-09-25T09:24:51.890Z,1013.56
2016-09-25T09:25:52.049Z,1013.58
2016-09-25T09:26:51.801Z,1013.57
2016-09-25T09:27:51.769Z,1013.6
2016-09-25T09:28:51.913Z,1013.57
2016-09-25T09:29:51.661Z,1013.53
2016-09-25T09:30:51.626Z,1013.53
2016-09-25T09:31:51.579Z,1013.54
2016-09-25T09:32:51.531Z,1013.5
2016-09-25T09:33:51.694Z,1013.48
2016-09-25T09:34:51.444Z,1013.45
2016-09-25T09:35:51.393Z,1013.51
2016-09-25T09:36:51.347Z,1013.48
2016-09-25T09:37:51.301Z,1013.47
2016-09-25T09:38:51.466Z,1013.4
2016-09-25T09:39:51.214Z,1013.43
2016-09-25T09:40:51.175Z,1013.39
2016-09-25T09:41:51.119Z,1013.42
2016-09-25T09:42:51.081Z,1013.38
2016-09-25T09:43:51.036Z,1013.39
2016-09-25T09:44:50.990Z,1013.38
2016-09-25T09:45:50.940Z,1013.46
2016-09-25T09:46:50.896Z,1013.4
2016-09-25T09:47:50.858Z,1013.39
2016-09-25T09:48:50.807Z,1013.34
2016-09-25T09:49:50.760Z,1013.36
2016-09-25T09:50:50.712Z,1013.37
2016-09-25T09:51:50.873Z,1013.33
2016-09-25T09:52:50.636Z,1013.35
2016-09-25T09:53:50.581Z,1013.36
2016-09-25T09:54:50.533Z,1013.36
2016-09-25T09:55:50.491Z,1013.36
2016-09-25T09:56:50.449Z,1013.34
2016-09-25T09:57:50.402Z,1013.36
2016-09-25T09:58:50.360Z,1013.36
2016-09-25T09:59:50.316Z,1013.33
2016-09-25T10:00:50.268Z,1013.36
2016-09-25T10:01:50.228Z,1013.36
2016-09-25T10:02:50.178Z,1013.35
2016-09-25T10:03:50.131Z,1013.32
2016-09-25T10:04:50.089Z,1013.32
2016-09-25T10:05:50.047Z,1013.33
2016-09-25T10:06:50.006Z,1013.32
2016-09-25T10:07:49.954Z,1013.29
2016-09-25T10:08:49.919Z,1013.3
2016-09-25T10:09:49.872Z,1013.29
2016-09-25T10:10:49.819Z,1013.32
2016-09-25T10:11:49.776Z,1013.34
2016-09-25T10:12:49.732Z,1013.31
2016-09-25T10:13:49.891Z,1013.28
2016-09-25T10:14:49.645Z,1013.22
2016-09-25T10:15:49.799Z,1013.24
2016-09-25T10:16:49.754Z,1013.21
2016-09-25T10:17:49.509Z,1013.23
2016-09-25T10:18:49.669Z,1013.18
2016-09-25T10:19:49.416Z,1013.17
2016-09-25T10:20:49.384Z,1013.22
2016-09-25T10:21:49.327Z,1013.17
2016-09-25T10:22:49.280Z,1013.2
2016-09-25T10:23:49.243Z,1013.19
2016-09-25T10:24:49.194Z,1013.17
2016-09-25T10:25:49.150Z,1013.13
2016-09-25T10:26:49.103Z,1013.12
2016-09-25T10:27:49.063Z,1013.13
2016-09-25T10:28:49.021Z,1013.2
2016-09-25T10:29:48.966Z,1013.17
2016-09-25T10:30:48.929Z,1013.17
2016-09-25T10:31:48.889Z,1013.14
2016-09-25T10:32:48.836Z,1013.16
2016-09-25T10:33:48.792Z,1013.17
2016-09-25T10:34:48.749Z,1013.19
2016-09-25T10:35:48.712Z,1013.18
2016-09-25T10:36:48.661Z,1013.24
2016-09-25T10:37:48.615Z,1013.24
2016-09-25T10:38:48.573Z,1013.21
2016-09-25T10:39:48.528Z,1013.21
2016-09-25T10:40:48.490Z,1013.24
2016-09-25T10:41:48.433Z,1013.23
2016-09-25T10:42:48.387Z,1013.22
2016-09-25T10:43:48.359Z,1013.21
2016-09-25T10:44:48.306Z,1013.2
2016-09-25T10:45:48.256Z,1013.23
2016-09-25T10:46:48.216Z,1013.27
2016-09-25T10:47:48.176Z,1013.23
2016-09-25T10:48:48.127Z,1013.25
2016-09-25T10:49:48.078Z,1013.26
2016-09-25T10:50:48.243Z,1013.28
2016-09-25T10:51:47.991Z,1013.28
2016-09-25T10:52:47.945Z,1013.26
2016-09-25T10:53:47.900Z,1013.32
2016-09-25T10:54:47.856Z,1013.33
2016-09-25T10:55:48.021Z,1013.28
2016-09-25T10:56:47.766Z,1013.26
2016-09-25T10:57:47.721Z,1013.3
2016-09-25T10:58:47.680Z,1013.37
2016-09-25T10:59:47.637Z,1013.28
2016-09-25T11:00:47.592Z,1013.27
2016-09-25T11:01:47.555Z,1013.28
2016-09-25T11:02:47.501Z,1013.26
2016-09-25T11:03:47.462Z,1013.26
2016-09-25T11:04:47.412Z,1013.25
2016-09-25T11:05:47.372Z,1013.18
2016-09-25T11:06:47.335Z,1013.15
2016-09-25T11:07:47.283Z,1013.13
2016-09-25T11:08:47.243Z,1013.2
2016-09-25T11:09:47.399Z,1013.17
2016-09-25T11:10:47.162Z,1013.13
2016-09-25T11:11:47.107Z,1013.12
2016-09-25T11:12:47.067Z,1013.13
2016-09-25T11:13:47.027Z,1013.05
2016-09-25T11:14:46.973Z,1013.08
2016-09-25T11:15:46.933Z,1013.08
2016-09-25T11:16:46.884Z,1013.09
2016-09-25T11:17:47.096Z,1013.08
2016-09-25T11:18:46.799Z,1013.02
2016-09-25T11:19:46.758Z,1013.05
2016-09-25T11:20:46.711Z,1013.05
2016-09-25T11:21:46.669Z,1013.03
2016-09-25T11:23:46.581Z,1013
2016-09-25T11:24:46.536Z,1013.03
2016-09-25T11:25:46.492Z,1013
2016-09-25T11:26:46.453Z,1013.05
2016-09-25T11:27:46.402Z,1013.05
2016-09-25T11:28:46.394Z,1013.03
2016-09-25T11:29:46.322Z,1013.06
2016-09-25T11:30:46.275Z,1013
2016-09-25T11:31:46.230Z,1013.01
2016-09-25T11:32:46.187Z,1012.99
2016-09-25T11:33:46.142Z,1012.98
2016-09-25T11:34:46.100Z,1012.95
2016-09-25T11:35:46.056Z,1012.92
2016-09-25T11:36:46.415Z,1012.92
2016-09-25T11:37:45.968Z,1012.95
2016-09-25T11:38:45.925Z,1012.93
2016-09-25T11:39:45.878Z,1012.87
2016-09-25T11:40:45.839Z,1012.88
2016-09-25T11:41:45.994Z,1012.86
2016-09-25T11:42:45.952Z,1012.9
2016-09-25T11:43:45.907Z,1012.84
2016-09-25T11:44:45.663Z,1012.83
2016-09-25T11:45:45.827Z,1012.82
2016-09-25T11:46:45.579Z,1012.81
2016-09-25T11:47:45.740Z,1012.85
2016-09-25T11:48:45.496Z,1012.76
2016-09-25T11:49:45.446Z,1012.75
2016-09-25T11:50:45.402Z,1012.74
2016-09-25T11:51:45.364Z,1012.73
2016-09-25T11:52:45.574Z,1012.71
2016-09-25T11:53:45.480Z,1012.66
2016-09-25T11:54:45.240Z,1012.66
2016-09-25T11:55:45.187Z,1012.66
2016-09-25T11:56:45.149Z,1012.66
2016-09-25T11:57:45.102Z,1012.63
2016-09-25T11:58:45.063Z,1012.62
2016-09-25T11:59:45.020Z,1012.63
2016-09-25T12:00:44.973Z,1012.57
2016-09-25T12:01:45.136Z,1012.64
2016-09-25T12:02:44.888Z,1012.58
2016-09-25T12:03:44.843Z,1012.55
2016-09-25T12:04:44.798Z,1012.55
2016-09-25T12:05:44.758Z,1012.47
2016-09-25T12:06:44.709Z,1012.53
2016-09-25T12:07:44.668Z,1012.5
2016-09-25T12:08:44.622Z,1012.52
2016-09-25T12:09:44.577Z,1012.49
2016-09-25T12:10:44.549Z,1012.51
2016-09-25T12:11:44.495Z,1012.44
2016-09-25T12:12:44.458Z,1012.43
2016-09-25T12:13:44.411Z,1012.44
2016-09-25T12:14:44.360Z,1012.41
2016-09-25T12:15:44.328Z,1012.45
2016-09-25T12:16:44.278Z,1012.39
2016-09-25T12:17:44.442Z,1012.38
2016-09-25T12:18:44.395Z,1012.4
2016-09-25T12:19:44.152Z,1012.4
2016-09-25T12:20:44.112Z,1012.43
2016-09-25T12:21:44.073Z,1012.38
2016-09-25T12:22:44.228Z,1012.38
2016-09-25T12:23:43.992Z,1012.34
2016-09-25T12:24:43.936Z,1012.32
2016-09-25T12:25:43.894Z,1012.32
2016-09-25T12:26:44.051Z,1012.27
2016-09-25T12:27:43.814Z,1012.22
2016-09-25T12:28:43.772Z,1012.22
2016-09-25T12:29:43.919Z,1012.25
2016-09-25T12:30:43.881Z,1012.27
2016-09-25T12:31:43.837Z,1012.3
2016-09-25T12:32:43.593Z,1012.27
2016-09-25T12:33:43.758Z,1012.26
2016-09-25T12:34:43.502Z,1012.21
2016-09-25T12:35:43.669Z,1012.17
2016-09-25T12:36:43.424Z,1012.16
2016-09-25T12:37:43.375Z,1012.2
2016-09-25T12:38:43.540Z,1012.18
2016-09-25T12:39:43.296Z,1012.17
2016-09-25T12:40:43.248Z,1012.16
2016-09-25T12:41:43.208Z,1012.11
2016-09-25T12:42:43.166Z,1012.1
2016-09-25T12:43:43.124Z,1012.14
2016-09-25T12:44:43.079Z,1012.12
2016-09-25T12:45:43.038Z,1012.09
2016-09-25T12:46:42.993Z,1012.02
2016-09-25T12:47:42.958Z,1012.02
2016-09-25T12:48:42.913Z,1012.05
2016-09-25T12:49:43.074Z,1012.08
2016-09-25T12:50:42.826Z,1012.09
2016-09-25T12:51:42.781Z,1012.11
2016-09-25T12:52:42.767Z,1012.04
2016-09-25T12:53:42.699Z,1012.07
2016-09-25T12:54:42.732Z,1012.1
2016-09-25T12:55:42.609Z,1012.1
2016-09-25T12:56:42.571Z,1012.1
2016-09-25T12:57:42.527Z,1012.12
2016-09-25T12:58:42.485Z,1012.06
2016-09-25T12:59:42.444Z,1012.08
2016-09-25T13:00:42.400Z,1012.04
2016-09-25T13:01:42.357Z,1012.04
2016-09-25T13:02:42.314Z,1012.03
2016-09-25T13:03:42.281Z,1012.08
2016-09-25T13:04:42.229Z,1012
2016-09-25T13:05:42.188Z,1012
2016-09-25T13:06:42.144Z,1011.97
2016-09-25T13:07:42.203Z,1011.9
2016-09-25T13:08:42.063Z,1011.94
2016-09-25T13:09:42.023Z,1012.01
2016-09-25T13:10:41.973Z,1012
2016-09-25T13:11:41.930Z,1012.03
2016-09-25T13:12:41.887Z,1012.08
2016-09-25T13:13:41.883Z,1012.05
2016-09-25T13:14:41.809Z,1012.16
2016-09-25T13:15:41.784Z,1012.11
2016-09-25T13:16:41.717Z,1012.14
2016-09-25T13:17:41.679Z,1012.11
2016-09-25T13:18:41.633Z,1012.08
2016-09-25T13:19:41.597Z,1012.01
2016-09-25T13:20:41.553Z,1012.05
2016-09-25T13:21:41.714Z,1012.06
2016-09-25T13:22:41.473Z,1012.05
2016-09-25T13:23:41.425Z,1012.09
2016-09-25T13:24:41.375Z,1012.07
2016-09-25T13:25:41.339Z,1012.09
2016-09-25T13:26:41.295Z,1012.08
2016-09-25T13:27:41.259Z,1012.12
2016-09-25T13:28:41.206Z,1012.05
2016-09-25T13:29:41.370Z,1012.1
2016-09-25T13:30:41.126Z,1012.09
2016-09-25T13:31:41.286Z,1012.11
2016-09-25T13:32:41.048Z,1012.02
2016-09-25T13:33:41.002Z,1012.09
2016-09-25T13:34:40.953Z,1012.1
2016-09-25T13:35:41.116Z,1012.1
2016-09-25T13:36:40.871Z,1012.12
2016-09-25T13:37:40.834Z,1012.12
2016-09-25T13:38:40.787Z,1012.12
2016-09-25T13:39:40.946Z,1012.08
2016-09-25T13:40:40.700Z,1012.07
2016-09-25T13:41:40.664Z,1012.08
2016-09-25T13:42:40.617Z,1012.01
2016-09-25T13:43:40.573Z,1012.1
2016-09-25T13:44:40.545Z,1012.1
2016-09-25T13:45:40.492Z,1012.06
2016-09-25T13:46:40.449Z,1012.13
2016-09-25T13:47:40.610Z,1012.06
2016-09-25T13:48:40.364Z,1012.07
2016-09-25T13:49:40.325Z,1012.16
2016-09-25T13:50:40.280Z,1012.11
2016-09-25T13:51:40.256Z,1012.15
2016-09-25T13:52:40.400Z,1012.13
2016-09-25T13:53:40.360Z,1012.11
2016-09-25T13:54:40.112Z,1012.14
2016-09-25T13:55:40.074Z,1012.08
2016-09-25T13:56:40.032Z,1012.13
2016-09-25T13:57:39.992Z,1012.11
2016-09-25T13:58:39.953Z,1012.14
2016-09-25T13:59:40.314Z,1012.17
2016-09-25T14:00:39.864Z,1012.15
2016-09-25T14:01:39.825Z,1012.19
2016-09-25T14:02:39.784Z,1012.2
2016-09-25T14:03:39.739Z,1012.2
2016-09-25T14:04:39.696Z,1012.22
2016-09-25T14:05:39.656Z,1012.25
2016-09-25T14:06:39.615Z,1012.23
2016-09-25T14:07:39.572Z,1012.29
2016-09-25T14:08:39.732Z,1012.31
2016-09-25T14:09:39.695Z,1012.28
2016-09-25T14:10:39.644Z,1012.16
2016-09-25T14:11:39.606Z,1012.2
2016-09-25T14:12:39.365Z,1012.27
2016-09-25T14:13:39.324Z,1012.25
2016-09-25T14:14:39.281Z,1012.28
2016-09-25T14:15:39.447Z,1012.3
2016-09-25T14:16:39.197Z,1012.34
2016-09-25T14:17:39.163Z,1012.33
2016-09-25T14:18:39.113Z,1012.33
2016-09-25T14:19:39.080Z,1012.31
2016-09-25T14:20:39.032Z,1012.38
2016-09-25T14:21:38.989Z,1012.33
2016-09-25T14:22:38.947Z,1012.38
2016-09-25T14:23:38.911Z,1012.4
2016-09-25T14:24:38.872Z,1012.44
2016-09-25T14:25:38.828Z,1012.41
2016-09-25T14:26:38.787Z,1012.4
2016-09-25T14:27:38.744Z,1012.42
2016-09-25T14:28:38.699Z,1012.41
2016-09-25T14:29:38.665Z,1012.47
2016-09-25T14:30:38.617Z,1012.44
2016-09-25T14:31:38.575Z,1012.44
2016-09-25T14:32:38.532Z,1012.44
2016-09-25T14:33:38.492Z,1012.47
2016-09-25T14:34:38.451Z,1012.51
2016-09-25T14:35:38.611Z,1012.54
2016-09-25T14:36:38.570Z,1012.52
2016-09-25T14:37:38.323Z,1012.49
2016-09-25T14:38:38.485Z,1012.52
2016-09-25T14:39:38.242Z,1012.48
2016-09-25T14:40:38.205Z,1012.46
2016-09-25T14:41:38.209Z,1012.54
2016-09-25T14:42:38.118Z,1012.52
2016-09-25T14:43:38.078Z,1012.56
2016-09-25T14:44:38.036Z,1012.57
2016-09-25T14:45:37.990Z,1012.57
2016-09-25T14:46:37.952Z,1012.57
2016-09-25T14:47:37.909Z,1012.59
2016-09-25T14:48:38.071Z,1012.61
2016-09-25T14:49:37.824Z,1012.64
2016-09-25T14:50:37.787Z,1012.61
2016-09-25T14:51:37.745Z,1012.63
2016-09-25T14:52:37.701Z,1012.61
2016-09-25T14:53:37.664Z,1012.62
2016-09-25T14:54:37.627Z,1012.62
2016-09-25T14:55:37.580Z,1012.6
2016-09-25T14:56:37.534Z,1012.62
2016-09-25T14:57:37.492Z,1012.61
2016-09-25T14:58:37.457Z,1012.64
2016-09-25T14:59:37.413Z,1012.65
2016-09-25T15:00:37.366Z,1012.6
2016-09-25T15:01:37.331Z,1012.68
2016-09-25T15:02:37.289Z,1012.67
2016-09-25T15:03:37.248Z,1012.65
2016-09-25T15:04:37.210Z,1012.6
2016-09-25T15:05:37.165Z,1012.6
2016-09-25T15:06:37.115Z,1012.63
2016-09-25T15:07:37.075Z,1012.63
2016-09-25T15:08:37.035Z,1012.62
2016-09-25T15:09:36.997Z,1012.6
2016-09-25T15:10:36.949Z,1012.59
2016-09-25T15:11:36.908Z,1012.57
2016-09-25T15:12:36.867Z,1012.62
2016-09-25T15:13:36.832Z,1012.65
2016-09-25T15:14:36.782Z,1012.65
2016-09-25T15:15:36.740Z,1012.65
2016-09-25T15:16:36.699Z,1012.65
2016-09-25T15:17:36.657Z,1012.68
2016-09-25T15:18:36.625Z,1012.66
2016-09-25T15:19:36.575Z,1012.68
2016-09-25T15:20:36.531Z,1012.68
2016-09-25T15:21:36.496Z,1012.7
2016-09-25T15:22:36.449Z,1012.7
2016-09-25T15:23:36.410Z,1012.65
2016-09-25T15:24:36.362Z,1012.68
2016-09-25T15:25:36.331Z,1012.67
2016-09-25T15:26:36.281Z,1012.7
2016-09-25T15:27:36.237Z,1012.69
2016-09-25T15:28:36.198Z,1012.64
2016-09-25T15:29:36.155Z,1012.65
2016-09-25T15:30:36.118Z,1012.66
2016-09-25T15:31:36.120Z,1012.67
2016-09-25T15:32:36.025Z,1012.72
2016-09-25T15:33:35.997Z,1012.69
2016-09-25T15:34:35.939Z,1012.71
2016-09-25T15:35:35.906Z,1012.73
2016-09-25T15:36:35.861Z,1012.75
2016-09-25T15:37:35.816Z,1012.76
2016-09-25T15:38:35.781Z,1012.73
2016-09-25T15:39:35.733Z,1012.72
2016-09-25T15:40:35.688Z,1012.74
2016-09-25T15:41:35.646Z,1012.74
2016-09-25T15:42:35.808Z,1012.76
2016-09-25T15:43:35.565Z,1012.78
2016-09-25T15:44:35.521Z,1012.76
2016-09-25T15:45:35.482Z,1012.81
2016-09-25T15:46:35.440Z,1012.8
2016-09-25T15:47:35.399Z,1012.83
2016-09-25T15:48:35.358Z,1012.79
2016-09-25T15:49:35.308Z,1012.83
2016-09-25T15:50:35.263Z,1012.79
2016-09-25T15:51:35.236Z,1012.83
2016-09-25T15:52:35.191Z,1012.8
2016-09-25T15:53:35.141Z,1012.84
2016-09-25T15:54:35.103Z,1012.8
2016-09-25T15:55:35.062Z,1012.82
2016-09-25T15:56:35.215Z,1012.83
2016-09-25T15:57:35.576Z,1012.88
2016-09-25T15:58:34.933Z,1012.86
2016-09-25T15:59:34.891Z,1012.87
2016-09-25T16:00:34.844Z,1012.89
2016-09-25T16:01:34.805Z,1012.92
2016-09-25T16:02:35.164Z,1012.93
2016-09-25T16:03:34.720Z,1012.97
2016-09-25T16:04:34.684Z,1012.99
2016-09-25T16:05:34.833Z,1012.98
2016-09-25T16:06:34.601Z,1013.02
2016-09-25T16:07:34.544Z,1013.01
2016-09-25T16:08:34.509Z,1012.97
2016-09-25T16:09:34.468Z,1013.02
2016-09-25T16:10:34.429Z,1013.08
2016-09-25T16:11:34.385Z,1013.05
2016-09-25T16:12:34.335Z,1013.05
2016-09-25T16:13:34.547Z,1013.06
2016-09-25T16:14:34.255Z,1013.04
2016-09-25T16:15:34.207Z,1013.08
2016-09-25T16:16:34.169Z,1013.06
2016-09-25T16:17:34.128Z,1013.11
2016-09-25T16:18:34.936Z,1013.1
2016-09-25T16:19:34.044Z,1013.11
2016-09-25T16:20:33.996Z,1013.11
2016-09-25T16:21:33.956Z,1013.1
2016-09-25T16:22:33.911Z,1013.1
2016-09-25T16:23:33.875Z,1013.18
2016-09-25T16:24:33.827Z,1013.17
2016-09-25T16:25:33.785Z,1013.22
2016-09-25T16:26:33.744Z,1013.2
2016-09-25T16:27:33.699Z,1013.23
2016-09-25T16:28:33.660Z,1013.26
2016-09-25T16:29:33.614Z,1013.27
2016-09-25T16:30:33.574Z,1013.3
2016-09-25T16:31:33.525Z,1013.32
2016-09-25T16:32:33.489Z,1013.29
2016-09-25T16:33:33.446Z,1013.32
2016-09-25T16:34:33.395Z,1013.34
2016-09-25T16:35:33.458Z,1013.39
2016-09-25T16:36:33.313Z,1013.38
2016-09-25T16:37:33.271Z,1013.4
2016-09-25T16:38:33.236Z,1013.36
2016-09-25T16:39:33.184Z,1013.36
2016-09-25T16:40:33.139Z,1013.4
2016-09-25T16:41:33.103Z,1013.4
2016-09-25T16:42:33.062Z,1013.41
2016-09-25T16:43:33.015Z,1013.46
2016-09-25T16:44:32.982Z,1013.56
2016-09-25T16:45:32.927Z,1013.5
2016-09-25T16:46:32.885Z,1013.57
2016-09-25T16:47:32.839Z,1013.57
2016-09-25T16:48:32.799Z,1013.7
2016-09-25T16:49:32.765Z,1013.75
2016-09-25T16:50:32.712Z,1013.72
2016-09-25T16:51:32.675Z,1013.77
2016-09-25T16:52:32.623Z,1013.77
2016-09-25T16:53:32.593Z,1013.84
2016-09-25T16:54:32.537Z,1013.82
2016-09-25T16:55:32.501Z,1013.85
2016-09-25T16:56:32.457Z,1013.86
2016-09-25T16:57:32.410Z,1013.95
2016-09-25T16:58:32.364Z,1014
2016-09-25T16:59:32.317Z,1013.89
2016-09-25T17:00:32.279Z,1013.95
2016-09-25T17:01:32.435Z,1013.94
2016-09-25T17:02:37.293Z,1013.94
2016-09-25T17:03:32.149Z,1013.97
2016-09-25T17:04:32.111Z,1014.03
2016-09-25T17:05:32.062Z,1014.05
2016-09-25T17:06:32.017Z,1014.02
2016-09-25T17:07:32.176Z,1014.02
2016-09-25T17:08:31.945Z,1014.01
2016-09-25T17:09:31.885Z,1014.09
2016-09-25T17:10:31.920Z,1014.03
2016-09-25T17:11:31.804Z,1014.14
2016-09-25T17:12:31.754Z,1014.07
2016-09-25T17:13:31.716Z,1014.23
2016-09-25T17:14:31.667Z,1014.27
2016-09-25T17:15:31.626Z,1014.15
2016-09-25T17:16:31.578Z,1014.31
2016-09-25T17:17:31.540Z,1014.31
2016-09-25T17:18:31.493Z,1014.34
2016-09-25T17:19:31.445Z,1014.45
2016-09-25T17:20:31.408Z,1014.42
2016-09-25T17:21:31.367Z,1014.38
2016-09-25T17:22:31.317Z,1014.49
2016-09-25T17:23:31.275Z,1014.66
2016-09-25T17:24:31.233Z,1014.7
2016-09-25T17:25:31.185Z,1014.63
2016-09-25T17:26:31.144Z,1014.7
2016-09-25T17:28:31.050Z,1014.77
2016-09-25T17:29:31.008Z,1014.79
2016-09-25T17:30:30.960Z,1014.77
2016-09-25T17:31:30.924Z,1014.93
2016-09-25T17:32:31.079Z,1014.75
2016-09-25T17:33:30.832Z,1014.96
2016-09-25T17:34:30.992Z,1014.94
2016-09-25T17:35:30.741Z,1015.08
2016-09-25T17:36:30.698Z,1015.27
2016-09-25T17:37:30.856Z,1015.11
2016-09-25T17:38:30.613Z,1015.18
2016-09-25T17:39:30.565Z,1015.12
2016-09-25T17:40:30.526Z,1015.25
2016-09-25T17:41:30.473Z,1015.3
2016-09-25T17:42:30.432Z,1015.28
2016-09-25T17:43:30.395Z,1015.35
2016-09-25T17:44:30.341Z,1015.33
2016-09-25T17:45:30.300Z,1015.31
2016-09-25T17:46:30.253Z,1015.35
2016-09-25T17:47:30.213Z,1015.35
2016-09-25T17:48:30.161Z,1015.42
2016-09-25T17:49:30.118Z,1015.43
2016-09-25T17:50:30.072Z,1015.42
2016-09-25T17:51:30.026Z,1015.38
2016-09-25T17:52:29.979Z,1015.4
2016-09-25T17:53:29.934Z,1015.42
2016-09-25T17:54:29.892Z,1015.42
2016-09-25T17:55:29.847Z,1015.43
2016-09-25T17:56:29.800Z,1015.5
2016-09-25T17:57:29.962Z,1015.53
2016-09-25T17:58:29.716Z,1015.53
2016-09-25T17:59:29.665Z,1015.62
2016-09-25T18:00:29.618Z,1015.69
2016-09-25T18:01:29.578Z,1015.71
2016-09-25T18:02:29.527Z,1015.72
2016-09-25T18:03:29.482Z,1015.7
2016-09-25T18:04:29.442Z,1015.79
2016-09-25T18:05:29.393Z,1015.81
2016-09-25T18:06:29.345Z,1015.94
2016-09-25T18:07:29.300Z,1015.87
2016-09-25T18:08:29.255Z,1015.98
2016-09-25T18:09:29.215Z,1016.03
2016-09-25T18:10:29.161Z,1016.06
2016-09-25T18:11:29.116Z,1016.09
2016-09-25T18:12:29.077Z,1016.26
2016-09-25T18:13:29.022Z,1016.13
2016-09-25T18:14:28.982Z,1016.31
2016-09-25T18:15:29.138Z,1016.27
2016-09-25T18:16:29.093Z,1016.39
2016-09-25T18:17:28.840Z,1016.34
2016-09-25T18:18:28.802Z,1016.4
2016-09-25T18:19:28.752Z,1016.45
2016-09-25T18:20:28.698Z,1016.44
2016-09-25T18:21:28.658Z,1016.47
2016-09-25T18:22:28.608Z,1016.51
2016-09-25T18:23:28.570Z,1016.49
2016-09-25T18:24:28.530Z,1016.65
2016-09-25T18:25:28.477Z,1016.7
2016-09-25T18:26:28.426Z,1016.54
2016-09-25T18:27:28.377Z,1016.48
2016-09-25T18:28:28.335Z,1016.53
2016-09-25T18:29:28.296Z,1016.45
2016-09-25T18:30:28.242Z,1016.51
2016-09-25T18:31:28.206Z,1016.47
2016-09-25T18:32:28.152Z,1016.53
2016-09-25T18:33:28.103Z,1016.57
2016-09-25T18:34:28.055Z,1016.6
2016-09-25T18:35:28.007Z,1016.66
2016-09-25T18:36:27.961Z,1016.64
2016-09-25T18:37:28.114Z,1016.66
2016-09-25T18:38:27.868Z,1016.68
2016-09-25T18:39:27.820Z,1016.75
2016-09-25T18:40:27.781Z,1016.81
2016-09-25T18:41:27.727Z,1016.9
2016-09-25T18:42:27.680Z,1016.84
2016-09-25T18:43:27.629Z,1016.92
2016-09-25T18:44:27.580Z,1016.94
2016-09-25T18:45:27.736Z,1016.92
2016-09-25T18:46:27.496Z,1016.98
2016-09-25T18:47:27.438Z,1016.95
2016-09-25T18:48:27.396Z,1017
2016-09-25T18:49:27.344Z,1017.03
2016-09-25T18:50:27.296Z,1017.11
2016-09-25T18:51:27.246Z,1017.11
2016-09-25T18:52:27.198Z,1017.14
2016-09-25T18:53:27.170Z,1017.12
2016-09-25T18:54:27.101Z,1017.16
2016-09-25T18:55:27.059Z,1017.16
2016-09-25T18:56:27.211Z,1017.24
2016-09-25T18:57:26.960Z,1017.24
2016-09-25T18:58:26.911Z,1017.24
2016-09-25T18:59:26.860Z,1017.27
2016-09-25T19:00:26.811Z,1017.28
2016-09-25T19:01:26.772Z,1017.24
2016-09-25T19:02:26.724Z,1017.2
2016-09-25T19:03:26.674Z,1017.28
2016-09-25T19:04:26.825Z,1017.31
2016-09-25T19:05:26.574Z,1017.3
2016-09-25T19:06:26.527Z,1017.32
2016-09-25T19:07:26.478Z,1017.31
2016-09-25T19:08:26.433Z,1017.36
2016-09-25T19:09:26.381Z,1017.31
2016-09-25T19:10:26.331Z,1017.33
2016-09-25T19:11:26.294Z,1017.27
2016-09-25T19:12:26.246Z,1017.36
2016-09-25T19:13:26.190Z,1017.38
2016-09-25T19:14:26.145Z,1017.38
2016-09-25T19:15:26.101Z,1017.36
2016-09-25T19:16:26.053Z,1017.43
2016-09-25T19:17:26.000Z,1017.43
2016-09-25T19:18:25.958Z,1017.44
2016-09-25T19:19:25.912Z,1017.43
2016-09-25T19:20:26.061Z,1017.44
2016-09-25T19:21:25.820Z,1017.44
2016-09-25T19:22:25.767Z,1017.49
2016-09-25T19:23:25.715Z,1017.43
2016-09-25T19:24:25.667Z,1017.49
2016-09-25T19:25:25.620Z,1017.51
2016-09-25T19:26:25.573Z,1017.52
2016-09-25T19:27:25.525Z,1017.51
2016-09-25T19:28:25.481Z,1017.49
2016-09-25T19:29:25.441Z,1017.51
2016-09-25T19:30:25.385Z,1017.51
2016-09-25T19:31:25.338Z,1017.52
2016-09-25T19:32:25.289Z,1017.53
2016-09-25T19:33:25.243Z,1017.6
2016-09-25T19:34:25.190Z,1017.62
2016-09-25T19:35:25.150Z,1017.65
2016-09-25T19:36:25.102Z,1017.65
2016-09-25T19:37:25.049Z,1017.73
2016-09-25T19:38:25.005Z,1017.76
2016-09-25T19:39:24.961Z,1017.79
2016-09-25T19:40:24.911Z,1017.81
2016-09-25T19:41:24.880Z,1017.81
2016-09-25T19:42:24.822Z,1017.82
2016-09-25T19:43:24.778Z,1017.84
2016-09-25T19:44:24.726Z,1017.89
2016-09-25T19:45:24.675Z,1017.89
2016-09-25T19:46:24.633Z,1017.88
2016-09-25T19:47:24.581Z,1017.85
2016-09-25T19:48:24.537Z,1017.86
2016-09-25T19:49:24.497Z,1017.89
2016-09-25T19:50:24.446Z,1017.88
2016-09-25T19:51:24.602Z,1017.9
2016-09-25T19:52:24.345Z,1017.86
2016-09-25T19:53:24.299Z,1017.84
2016-09-25T19:54:24.253Z,1017.85
2016-09-25T19:55:24.203Z,1017.88
2016-09-25T19:56:24.161Z,1017.89
2016-09-25T19:57:24.120Z,1017.86
2016-09-25T19:58:24.074Z,1017.87
2016-09-25T19:59:24.019Z,1017.88
2016-09-25T20:00:23.971Z,1017.91
2016-09-25T20:01:23.932Z,1017.86
2016-09-25T20:02:23.877Z,1017.88
2016-09-25T20:03:23.827Z,1017.84
2016-09-25T20:04:23.785Z,1017.85
2016-09-25T20:05:23.736Z,1017.89
2016-09-25T20:06:23.693Z,1017.84
2016-09-25T20:07:23.651Z,1017.82
2016-09-25T20:08:23.592Z,1017.84
2016-09-25T20:09:23.558Z,1017.87
2016-09-25T20:10:23.506Z,1017.87
2016-09-25T20:11:23.453Z,1017.89
2016-09-25T20:12:23.415Z,1017.94
2016-09-25T20:13:23.363Z,1017.97
2016-09-25T20:14:23.314Z,1018.02
2016-09-25T20:15:23.273Z,1017.94
2016-09-25T20:16:23.223Z,1017.92
2016-09-25T20:17:23.172Z,1017.97
2016-09-25T20:18:23.129Z,1017.93
2016-09-25T20:19:23.084Z,1017.95
2016-09-25T20:20:23.241Z,1017.91
2016-09-25T20:21:22.989Z,1017.87
2016-09-25T20:22:22.939Z,1017.89
2016-09-25T20:23:22.891Z,1017.93
2016-09-25T20:24:22.840Z,1017.89
2016-09-25T20:25:22.798Z,1017.91
2016-09-25T20:26:22.751Z,1017.92
2016-09-25T20:27:22.708Z,1017.92
2016-09-25T20:28:22.658Z,1017.95
2016-09-25T20:29:24.017Z,1017.92
2016-09-25T20:30:22.566Z,1017.91
2016-09-25T20:31:22.515Z,1017.96
2016-09-25T20:32:22.467Z,1017.94
2016-09-25T20:33:22.424Z,1017.96
2016-09-25T20:34:22.374Z,1017.99
2016-09-25T20:35:22.335Z,1018.01
2016-09-25T20:36:22.279Z,1018.01
2016-09-25T20:37:22.232Z,1017.99
2016-09-25T20:38:22.193Z,1017.99
2016-09-25T20:39:22.143Z,1018.02
2016-09-25T20:40:22.092Z,1018.02
2016-09-25T20:41:22.043Z,1018.03
2016-09-25T20:42:21.999Z,1018.03
2016-09-25T20:43:22.159Z,1018.07
2016-09-25T20:44:21.906Z,1018.1
2016-09-25T20:45:21.864Z,1018.08
2016-09-25T20:46:21.816Z,1018.1
2016-09-25T20:47:21.768Z,1018.06
2016-09-25T20:48:21.718Z,1018.08
2016-09-25T20:49:21.671Z,1018.11
2016-09-25T20:50:21.621Z,1018.16
2016-09-25T20:51:21.577Z,1018.22
2016-09-25T20:52:21.527Z,1018.2